sensor_id;sensor_type;location;lat;lon;timestamp;pressure;altitude;pressure_sealevel;temperature;humidity
23223;BME280;11780;13.904;100.620;2023-06-24T00:00:47;100777.63;;;32.88;nan
23223;BME280;11780;13.904;100.620;2023-06-24T00:03:18;100786.13;;;32.83;nan
23223;BME280;11780;13.904;100.620;2023-06-24T00:05:48;100788.28;;;32.77;nan
23223;BME280;11780;13.904;100.620;2023-06-24T00:08:19;100783.22;;;32.79;nan
23223;BME280;11780;13.904;100.620;2023-06-24T00:10:53;100793.00;;;32.76;nan
23223;BME280;11780;13.904;100.620;2023-06-24T00:13:23;100783.25;;;32.70;nan
23223;BME280;11780;13.904;100.620;2023-06-24T00:15:55;100786.50;;;32.72;nan
23223;BME280;11780;13.904;100.620;2023-06-24T00:18:26;100790.44;;;32.71;nan
23223;BME280;11780;13.904;100.620;2023-06-24T00:20:59;100794.34;;;32.70;nan
23223;BME280;11780;13.904;100.620;2023-06-24T00:23:31;100792.53;;;32.74;nan
23223;BME280;11780;13.904;100.620;2023-06-24T00:26:04;100794.34;;;32.70;nan
23223;BME280;11780;13.904;100.620;2023-06-24T00:28:35;100796.94;;;32.75;nan
23223;BME280;11780;13.904;100.620;2023-06-24T00:31:06;100797.78;;;32.67;nan
23223;BME280;11780;13.904;100.620;2023-06-24T00:33:36;100800.06;;;32.65;nan
23223;BME280;11780;13.904;100.620;2023-06-24T00:36:07;100805.41;;;32.70;nan
23223;BME280;11780;13.904;100.620;2023-06-24T00:38:41;100802.66;;;32.70;nan
23223;BME280;11780;13.904;100.620;2023-06-24T00:41:12;100804.28;;;32.71;nan
23223;BME280;11780;13.904;100.620;2023-06-24T00:43:43;100812.09;;;32.69;nan
23223;BME280;11780;13.904;100.620;2023-06-24T00:46:14;100805.34;;;32.58;nan
23223;BME280;11780;13.904;100.620;2023-06-24T00:48:45;100807.44;;;32.61;nan
23223;BME280;11780;13.904;100.620;2023-06-24T00:51:16;100796.81;;;32.63;nan
23223;BME280;11780;13.904;100.620;2023-06-24T00:53:47;100809.34;;;32.69;nan
23223;BME280;11780;13.904;100.620;2023-06-24T00:56:20;100803.44;;;32.71;nan
23223;BME280;11780;13.904;100.620;2023-06-24T00:58:52;100804.53;;;32.78;nan
23223;BME280;11780;13.904;100.620;2023-06-24T01:01:22;100810.16;;;32.70;nan
23223;BME280;11780;13.904;100.620;2023-06-24T04:10:36;100761.13;;;33.13;57.29
23223;BME280;11780;13.904;100.620;2023-06-24T04:13:07;100761.81;;;33.09;57.88
23223;BME280;11780;13.904;100.620;2023-06-24T04:15:38;100759.78;;;33.19;58.05
23223;BME280;11780;13.904;100.620;2023-06-24T04:18:09;100747.69;;;33.23;58.08
23223;BME280;11780;13.904;100.620;2023-06-24T04:20:39;100760.75;;;33.23;58.32
23223;BME280;11780;13.904;100.620;2023-06-24T04:23:11;100747.59;;;33.32;57.83
23223;BME280;11780;13.904;100.620;2023-06-24T04:25:45;100745.19;;;33.31;56.86
23223;BME280;11780;13.904;100.620;2023-06-24T04:28:16;100741.66;;;33.43;56.07
23223;BME280;11780;13.904;100.620;2023-06-24T04:30:46;100742.38;;;33.52;55.94
23223;BME280;11780;13.904;100.620;2023-06-24T04:33:16;100741.00;;;33.58;55.57
23223;BME280;11780;13.904;100.620;2023-06-24T04:35:47;100734.66;;;33.58;55.34
23223;BME280;11780;13.904;100.620;2023-06-24T04:38:17;100728.75;;;33.59;55.36
23223;BME280;11780;13.904;100.620;2023-06-24T04:40:49;100732.13;;;33.65;55.16
23223;BME280;11780;13.904;100.620;2023-06-24T04:43:20;100728.53;;;33.64;55.74
23223;BME280;11780;13.904;100.620;2023-06-24T04:45:50;100737.34;;;33.66;55.58
23223;BME280;11780;13.904;100.620;2023-06-24T04:48:22;100738.47;;;33.65;56.39
23223;BME280;11780;13.904;100.620;2023-06-24T04:50:52;100728.66;;;33.68;56.13
23223;BME280;11780;13.904;100.620;2023-06-24T04:53:28;100732.94;;;33.65;56.74
23223;BME280;11780;13.904;100.620;2023-06-24T04:55:59;100737.81;;;33.68;56.14
23223;BME280;11780;13.904;100.620;2023-06-24T04:58:29;100727.97;;;33.71;56.25
23223;BME280;11780;13.904;100.620;2023-06-24T05:01:00;100735.03;;;33.68;56.18
23223;BME280;11780;13.904;100.620;2023-06-24T05:03:30;100724.06;;;33.72;56.02
23223;BME280;11780;13.904;100.620;2023-06-24T05:06:01;100724.84;;;33.73;56.78
23223;BME280;11780;13.904;100.620;2023-06-24T05:08:31;100725.56;;;33.69;56.77
23223;BME280;11780;13.904;100.620;2023-06-24T05:11:01;100713.31;;;33.70;55.82
23223;BME280;11780;13.904;100.620;2023-06-24T05:13:32;100716.66;;;33.76;55.54
23223;BME280;11780;13.904;100.620;2023-06-24T05:16:02;100720.25;;;33.77;56.27
23223;BME280;11780;13.904;100.620;2023-06-24T05:18:32;100708.66;;;33.75;55.98
23223;BME280;11780;13.904;100.620;2023-06-24T05:21:03;100699.09;;;33.72;55.89
23223;BME280;11780;13.904;100.620;2023-06-24T05:23:33;100705.91;;;33.75;56.54
23223;BME280;11780;13.904;100.620;2023-06-24T05:26:04;100712.59;;;33.74;56.67
23223;BME280;11780;13.904;100.620;2023-06-24T05:28:34;100696.31;;;33.72;56.42
23223;BME280;11780;13.904;100.620;2023-06-24T05:31:05;100689.41;;;33.78;55.70
23223;BME280;11780;13.904;100.620;2023-06-24T05:33:35;100690.06;;;33.75;55.92
23223;BME280;11780;13.904;100.620;2023-06-24T05:36:05;100688.09;;;33.76;56.05
23223;BME280;11780;13.904;100.620;2023-06-24T05:38:36;100680.47;;;33.73;56.34
23223;BME280;11780;13.904;100.620;2023-06-24T05:41:06;100682.44;;;33.72;56.31
23223;BME280;11780;13.904;100.620;2023-06-24T05:43:36;100680.25;;;33.78;55.88
23223;BME280;11780;13.904;100.620;2023-06-24T05:46:08;100683.38;;;33.76;55.87
23223;BME280;11780;13.904;100.620;2023-06-24T05:48:39;100673.75;;;33.74;56.15
23223;BME280;11780;13.904;100.620;2023-06-24T05:51:09;100672.59;;;33.75;56.08
23223;BME280;11780;13.904;100.620;2023-06-24T05:53:40;100660.03;;;33.77;56.08
23223;BME280;11780;13.904;100.620;2023-06-24T05:56:10;100656.44;;;33.77;55.68
23223;BME280;11780;13.904;100.620;2023-06-24T05:58:41;100653.44;;;33.82;56.06
23223;BME280;11780;13.904;100.620;2023-06-24T06:01:11;100647.06;;;33.81;55.78
23223;BME280;11780;13.904;100.620;2023-06-24T06:03:42;100636.44;;;33.83;55.84
23223;BME280;11780;13.904;100.620;2023-06-24T06:06:12;100635.19;;;33.81;55.74
23223;BME280;11780;13.904;100.620;2023-06-24T06:08:43;100636.78;;;33.82;55.87
23223;BME280;11780;13.904;100.620;2023-06-24T06:11:13;100637.25;;;33.84;55.47
23223;BME280;11780;13.904;100.620;2023-06-24T06:13:44;100618.75;;;33.88;55.70
23223;BME280;11780;13.904;100.620;2023-06-24T06:16:15;100626.75;;;33.90;55.40
23223;BME280;11780;13.904;100.620;2023-06-24T06:18:46;100614.63;;;33.94;55.61
23223;BME280;11780;13.904;100.620;2023-06-24T06:21:17;100616.81;;;33.89;55.92
23223;BME280;11780;13.904;100.620;2023-06-24T06:23:49;100614.03;;;33.89;56.07
23223;BME280;11780;13.904;100.620;2023-06-24T06:26:19;100602.81;;;33.85;56.05
23223;BME280;11780;13.904;100.620;2023-06-24T06:28:51;100600.75;;;33.94;55.83
23223;BME280;11780;13.904;100.620;2023-06-24T06:31:23;100596.13;;;33.98;55.06
23223;BME280;11780;13.904;100.620;2023-06-24T06:33:56;100597.75;;;33.99;55.38
23223;BME280;11780;13.904;100.620;2023-06-24T06:36:26;100597.75;;;33.99;55.87
23223;BME280;11780;13.904;100.620;2023-06-24T06:38:56;100585.03;;;33.98;55.30
23223;BME280;11780;13.904;100.620;2023-06-24T06:41:26;100588.25;;;34.00;55.38
23223;BME280;11780;13.904;100.620;2023-06-24T06:43:57;100588.69;;;34.03;54.98
23223;BME280;11780;13.904;100.620;2023-06-24T06:46:27;100581.75;;;34.09;54.30
23223;BME280;11780;13.904;100.620;2023-06-24T06:48:57;100576.19;;;34.09;54.06
23223;BME280;11780;13.904;100.620;2023-06-24T06:51:29;100576.31;;;34.12;53.93
23223;BME280;11780;13.904;100.620;2023-06-24T06:54:00;100571.66;;;34.16;53.86
23223;BME280;11780;13.904;100.620;2023-06-24T06:56:30;100571.81;;;34.08;53.84
23223;BME280;11780;13.904;100.620;2023-06-24T06:59:00;100561.94;;;34.23;53.31
23223;BME280;11780;13.904;100.620;2023-06-24T07:01:31;100557.00;;;34.16;53.07
23223;BME280;11780;13.904;100.620;2023-06-24T07:04:01;100562.88;;;34.14;53.34
23223;BME280;11780;13.904;100.620;2023-06-24T07:06:32;100566.03;;;34.13;53.45
23223;BME280;11780;13.904;100.620;2023-06-24T07:09:03;100554.31;;;34.20;53.34
23223;BME280;11780;13.904;100.620;2023-06-24T07:11:35;100542.84;;;34.21;52.50
23223;BME280;11780;13.904;100.620;2023-06-24T07:14:05;100543.56;;;34.18;52.75
23223;BME280;11780;13.904;100.620;2023-06-24T07:16:36;100533.97;;;34.15;52.79
23223;BME280;11780;13.904;100.620;2023-06-24T07:19:07;100525.97;;;34.26;52.34
23223;BME280;11780;13.904;100.620;2023-06-24T07:21:38;100529.19;;;34.28;52.85
23223;BME280;11780;13.904;100.620;2023-06-24T07:24:09;100527.44;;;34.36;52.56
23223;BME280;11780;13.904;100.620;2023-06-24T07:26:39;100535.19;;;34.30;52.79
23223;BME280;11780;13.904;100.620;2023-06-24T07:29:10;100522.47;;;34.29;52.67
23223;BME280;11780;13.904;100.620;2023-06-24T07:31:41;100514.63;;;34.31;52.51
23223;BME280;11780;13.904;100.620;2023-06-24T07:34:12;100509.75;;;34.28;52.98
23223;BME280;11780;13.904;100.620;2023-06-24T07:36:42;100502.69;;;34.31;52.52
23223;BME280;11780;13.904;100.620;2023-06-24T07:39:13;100503.84;;;34.30;52.93
23223;BME280;11780;13.904;100.620;2023-06-24T07:41:43;100500.97;;;34.26;53.03
23223;BME280;11780;13.904;100.620;2023-06-24T07:44:14;100497.50;;;34.29;53.17
23223;BME280;11780;13.904;100.620;2023-06-24T07:46:45;100500.00;;;34.35;52.93
23223;BME280;11780;13.904;100.620;2023-06-24T07:49:16;100493.53;;;34.43;52.84
23223;BME280;11780;13.904;100.620;2023-06-24T07:51:46;100494.03;;;34.33;53.16
23223;BME280;11780;13.904;100.620;2023-06-24T07:54:18;100483.47;;;34.38;53.02
23223;BME280;11780;13.904;100.620;2023-06-24T07:56:48;100490.25;;;34.41;52.93
23223;BME280;11780;13.904;100.620;2023-06-24T07:59:19;100481.00;;;34.49;52.67
23223;BME280;11780;13.904;100.620;2023-06-24T08:01:49;100475.47;;;34.49;52.87
23223;BME280;11780;13.904;100.620;2023-06-24T08:04:20;100471.84;;;34.49;52.64
23223;BME280;11780;13.904;100.620;2023-06-24T08:06:50;100462.50;;;34.41;53.19
23223;BME280;11780;13.904;100.620;2023-06-24T08:09:21;100455.16;;;34.33;53.21
23223;BME280;11780;13.904;100.620;2023-06-24T08:11:51;100449.22;;;34.34;53.00
23223;BME280;11780;13.904;100.620;2023-06-24T08:14:21;100445.50;;;34.42;52.98
23223;BME280;11780;13.904;100.620;2023-06-24T08:16:52;100436.84;;;34.44;52.86
23223;BME280;11780;13.904;100.620;2023-06-24T08:19:23;100436.47;;;34.45;52.19
23223;BME280;11780;13.904;100.620;2023-06-24T08:21:53;100426.34;;;34.53;52.14
23223;BME280;11780;13.904;100.620;2023-06-24T08:24:24;100425.47;;;34.49;52.21
23223;BME280;11780;13.904;100.620;2023-06-24T08:26:54;100420.63;;;34.46;52.37
23223;BME280;11780;13.904;100.620;2023-06-24T08:29:24;100426.97;;;34.46;52.24
23223;BME280;11780;13.904;100.620;2023-06-24T08:31:54;100419.81;;;34.45;52.88
23223;BME280;11780;13.904;100.620;2023-06-24T08:34:25;100415.06;;;34.46;53.06
23223;BME280;11780;13.904;100.620;2023-06-24T08:36:59;100411.06;;;34.31;53.12
23223;BME280;11780;13.904;100.620;2023-06-24T08:39:32;100406.75;;;34.34;53.32
23223;BME280;11780;13.904;100.620;2023-06-24T08:42:03;100400.41;;;34.33;53.03
23223;BME280;11780;13.904;100.620;2023-06-24T08:44:33;100394.50;;;34.35;52.91
23223;BME280;11780;13.904;100.620;2023-06-24T08:47:04;100397.38;;;34.38;53.12
23223;BME280;11780;13.904;100.620;2023-06-24T08:49:41;100394.06;;;34.33;53.13
23223;BME280;11780;13.904;100.620;2023-06-24T08:52:15;100403.56;;;34.31;53.02
23223;BME280;11780;13.904;100.620;2023-06-24T08:54:50;100413.31;;;34.25;52.78
23223;BME280;11780;13.904;100.620;2023-06-24T08:57:20;100406.75;;;34.34;52.75
23223;BME280;11780;13.904;100.620;2023-06-24T08:59:51;100415.66;;;34.39;52.67
23223;BME280;11780;13.904;100.620;2023-06-24T09:02:22;100421.69;;;34.41;52.77
23223;BME280;11780;13.904;100.620;2023-06-24T09:04:53;100408.75;;;34.33;52.93
23223;BME280;11780;13.904;100.620;2023-06-24T09:07:27;100398.88;;;34.36;53.01
23223;BME280;11780;13.904;100.620;2023-06-24T09:10:00;100391.72;;;34.35;52.97
23223;BME280;11780;13.904;100.620;2023-06-24T09:12:35;100404.69;;;34.43;53.31
23223;BME280;11780;13.904;100.620;2023-06-24T09:15:05;100409.13;;;34.31;53.36
23223;BME280;11780;13.904;100.620;2023-06-24T09:17:44;100406.59;;;34.26;53.47
23223;BME280;11780;13.904;100.620;2023-06-24T09:20:16;100400.06;;;34.35;53.06
23223;BME280;11780;13.904;100.620;2023-06-24T09:22:51;100395.66;;;34.34;53.28
23223;BME280;11780;13.904;100.620;2023-06-24T09:25:22;100399.78;;;34.40;52.95
23223;BME280;11780;13.904;100.620;2023-06-24T09:27:53;100394.41;;;34.31;53.17
23223;BME280;11780;13.904;100.620;2023-06-24T09:30:26;100405.88;;;34.29;53.29
23223;BME280;11780;13.904;100.620;2023-06-24T09:32:56;100394.06;;;34.33;52.89
23223;BME280;11780;13.904;100.620;2023-06-24T09:35:27;100395.56;;;34.30;53.12
23223;BME280;11780;13.904;100.620;2023-06-24T09:37:57;100397.91;;;34.28;53.04
23223;BME280;11780;13.904;100.620;2023-06-24T09:40:34;100398.97;;;34.23;53.27
23223;BME280;11780;13.904;100.620;2023-06-24T09:43:06;100387.94;;;34.27;53.27
23223;BME280;11780;13.904;100.620;2023-06-24T09:45:38;100392.06;;;34.17;53.59
23223;BME280;11780;13.904;100.620;2023-06-24T09:48:09;100393.66;;;34.18;53.53
23223;BME280;11780;13.904;100.620;2023-06-24T09:50:39;100396.34;;;34.14;53.64
23223;BME280;11780;13.904;100.620;2023-06-24T09:53:10;100390.56;;;34.20;53.43
23223;BME280;11780;13.904;100.620;2023-06-24T09:55:41;100396.66;;;34.25;52.91
23223;BME280;11780;13.904;100.620;2023-06-24T09:58:13;100395.50;;;34.26;53.08
23223;BME280;11780;13.904;100.620;2023-06-24T10:00:46;100402.19;;;34.25;52.82
23223;BME280;11780;13.904;100.620;2023-06-24T10:03:16;100409.16;;;34.19;52.99
23223;BME280;11780;13.904;100.620;2023-06-24T10:05:48;100397.81;;;34.24;52.41
23223;BME280;11780;13.904;100.620;2023-06-24T10:08:18;100406.59;;;34.26;51.89
23223;BME280;11780;13.904;100.620;2023-06-24T10:10:49;100405.88;;;34.29;51.62
23223;BME280;11780;13.904;100.620;2023-06-24T10:13:20;100406.22;;;34.12;51.93
23223;BME280;11780;13.904;100.620;2023-06-24T10:15:50;100403.59;;;34.19;51.48
23223;BME280;11780;13.904;100.620;2023-06-24T10:18:39;100407.75;;;34.25;51.52
23223;BME280;11780;13.904;100.620;2023-06-24T10:21:11;100398.50;;;34.21;51.58
23223;BME280;11780;13.904;100.620;2023-06-24T10:26:29;100400.13;;;34.22;51.68
23223;BME280;11780;13.904;100.620;2023-06-24T10:36:57;100403.19;;;34.17;52.04
23223;BME280;11780;13.904;100.620;2023-06-24T10:39:47;100398.22;;;34.10;52.13
23223;BME280;11780;13.904;100.620;2023-06-24T10:42:33;100405.13;;;34.16;51.74
23223;BME280;11780;13.904;100.620;2023-06-24T10:47:50;100408.22;;;34.27;50.90
23223;BME280;11780;13.904;100.620;2023-06-24T10:50:22;100406.66;;;34.14;51.55
23223;BME280;11780;13.904;100.620;2023-06-24T10:52:56;100405.59;;;34.19;51.36
23223;BME280;11780;13.904;100.620;2023-06-24T10:55:27;100400.94;;;34.23;51.30
23223;BME280;11780;13.904;100.620;2023-06-24T10:58:07;100410.13;;;34.11;51.50
23223;BME280;11780;13.904;100.620;2023-06-24T11:00:39;100414.88;;;34.10;51.81
23223;BME280;11780;13.904;100.620;2023-06-24T11:03:14;100404.44;;;34.20;51.58
23223;BME280;11780;13.904;100.620;2023-06-24T11:05:46;100417.69;;;34.26;51.34
23223;BME280;11780;13.904;100.620;2023-06-24T11:08:16;100411.44;;;34.29;51.39
23223;BME280;11780;13.904;100.620;2023-06-24T11:10:47;100405.59;;;34.19;52.26
23223;BME280;11780;13.904;100.620;2023-06-24T11:13:20;100409.28;;;34.23;52.14
23223;BME280;11780;13.904;100.620;2023-06-24T11:15:51;100425.09;;;34.22;51.56
23223;BME280;11780;13.904;100.620;2023-06-24T11:18:23;100416.78;;;34.22;51.15
23223;BME280;11780;13.904;100.620;2023-06-24T11:20:55;100422.25;;;34.19;50.88
23223;BME280;11780;13.904;100.620;2023-06-24T11:23:25;100417.25;;;34.24;50.99
23223;BME280;11780;13.904;100.620;2023-06-24T11:25:56;100422.34;;;34.22;51.33
23223;BME280;11780;13.904;100.620;2023-06-24T11:28:31;100421.88;;;34.20;51.25
23223;BME280;11780;13.904;100.620;2023-06-24T11:31:09;100427.03;;;34.06;51.04
23223;BME280;11780;13.904;100.620;2023-06-24T11:33:40;100434.75;;;34.12;51.15
23223;BME280;11780;13.904;100.620;2023-06-24T11:36:10;100430.03;;;34.13;50.59
23223;BME280;11780;13.904;100.620;2023-06-24T11:38:41;100434.06;;;34.15;49.75
23223;BME280;11780;13.904;100.620;2023-06-24T11:41:11;100439.69;;;34.19;49.39
23223;BME280;11780;13.904;100.620;2023-06-24T11:43:46;100437.13;;;34.26;49.22
23223;BME280;11780;13.904;100.620;2023-06-24T11:46:30;100445.53;;;34.14;49.60
23223;BME280;11780;13.904;100.620;2023-06-24T11:49:08;100454.78;;;34.06;50.20
23223;BME280;11780;13.904;100.620;2023-06-24T11:51:46;100450.41;;;34.05;50.23
23223;BME280;11780;13.904;100.620;2023-06-24T11:54:21;100457.56;;;34.06;50.35
23223;BME280;11780;13.904;100.620;2023-06-24T11:56:51;100454.47;;;33.95;50.63
23223;BME280;11780;13.904;100.620;2023-06-24T11:59:22;100455.03;;;33.88;50.88
23223;BME280;11780;13.904;100.620;2023-06-24T12:01:58;100459.94;;;33.91;50.73
23223;BME280;11780;13.904;100.620;2023-06-24T12:04:33;100455.41;;;33.99;50.51
23223;BME280;11780;13.904;100.620;2023-06-24T12:07:06;100457.09;;;34.04;49.96
23223;BME280;11780;13.904;100.620;2023-06-24T12:09:37;100462.09;;;33.98;49.60
23223;BME280;11780;13.904;100.620;2023-06-24T12:12:08;100461.63;;;33.96;50.02
23223;BME280;11780;13.904;100.620;2023-06-24T12:14:38;100452.97;;;33.97;50.34
23223;BME280;11780;13.904;100.620;2023-06-24T12:17:09;100464.41;;;33.96;50.64
23223;BME280;11780;13.904;100.620;2023-06-24T12:19:39;100455.84;;;34.01;50.43
23223;BME280;11780;13.904;100.620;2023-06-24T12:22:10;100468.94;;;34.00;51.18
23223;BME280;11780;13.904;100.620;2023-06-24T12:24:40;100474.25;;;33.93;51.55
23223;BME280;11780;13.904;100.620;2023-06-24T12:27:11;100475.97;;;33.98;51.55
23223;BME280;11780;13.904;100.620;2023-06-24T12:29:41;100482.13;;;33.91;51.79
23223;BME280;11780;13.904;100.620;2023-06-24T12:32:11;100475.41;;;33.92;51.99
23223;BME280;11780;13.904;100.620;2023-06-24T12:34:42;100472.75;;;33.96;51.85
23223;BME280;11780;13.904;100.620;2023-06-24T12:37:12;100480.19;;;33.92;52.22
23223;BME280;11780;13.904;100.620;2023-06-24T12:39:44;100489.06;;;33.85;52.41
23223;BME280;11780;13.904;100.620;2023-06-24T12:42:15;100492.16;;;33.83;52.70
23223;BME280;11780;13.904;100.620;2023-06-24T12:44:45;100498.19;;;33.85;52.64
23223;BME280;11780;13.904;100.620;2023-06-24T12:47:18;100495.53;;;33.77;52.86
23223;BME280;11780;13.904;100.620;2023-06-24T12:49:51;100502.81;;;33.81;52.78
23223;BME280;11780;13.904;100.620;2023-06-24T12:52:22;100502.81;;;33.81;52.52
23223;BME280;11780;13.904;100.620;2023-06-24T12:54:53;100502.94;;;33.85;51.91
23223;BME280;11780;13.904;100.620;2023-06-24T12:57:23;100507.09;;;33.79;51.98
23223;BME280;11780;13.904;100.620;2023-06-24T12:59:53;100509.78;;;33.75;51.65
23223;BME280;11780;13.904;100.620;2023-06-24T13:02:24;100523.19;;;33.73;51.88
23223;BME280;11780;13.904;100.620;2023-06-24T13:04:54;100530.94;;;33.67;52.17
23223;BME280;11780;13.904;100.620;2023-06-24T13:07:25;100542.72;;;33.64;52.26
23223;BME280;11780;13.904;100.620;2023-06-24T13:09:55;100540.88;;;33.68;52.02
23223;BME280;11780;13.904;100.620;2023-06-24T13:12:26;100554.84;;;33.72;52.03
23223;BME280;11780;13.904;100.620;2023-06-24T13:14:56;100554.03;;;33.71;51.69
23223;BME280;11780;13.904;100.620;2023-06-24T13:17:28;100567.88;;;33.71;51.70
23223;BME280;11780;13.904;100.620;2023-06-24T13:19:58;100561.09;;;33.69;51.64
23223;BME280;11780;13.904;100.620;2023-06-24T13:22:29;100569.63;;;33.64;51.91
23223;BME280;11780;13.904;100.620;2023-06-24T13:25:00;100567.56;;;33.73;51.83
23223;BME280;11780;13.904;100.620;2023-06-24T13:27:31;100568.03;;;33.63;51.93
23223;BME280;11780;13.904;100.620;2023-06-24T13:30:01;100572.75;;;33.62;51.78
23223;BME280;11780;13.904;100.620;2023-06-24T13:32:33;100579.81;;;33.60;51.78
23223;BME280;11780;13.904;100.620;2023-06-24T13:35:04;100588.47;;;33.58;52.19
23223;BME280;11780;13.904;100.620;2023-06-24T13:37:36;100593.53;;;33.56;52.39
23223;BME280;11780;13.904;100.620;2023-06-24T13:40:09;100599.81;;;33.65;52.24
23223;BME280;11780;13.904;100.620;2023-06-24T13:42:40;100602.47;;;33.62;52.61
23223;BME280;11780;13.904;100.620;2023-06-24T13:45:10;100607.66;;;33.63;52.78
23223;BME280;11780;13.904;100.620;2023-06-24T13:47:41;100607.66;;;33.63;53.09
23223;BME280;11780;13.904;100.620;2023-06-24T13:50:11;100609.28;;;33.64;53.15
23223;BME280;11780;13.904;100.620;2023-06-24T13:52:41;100614.47;;;33.66;53.12
23223;BME280;11780;13.904;100.620;2023-06-24T13:55:12;100612.75;;;33.61;52.72
23223;BME280;11780;13.904;100.620;2023-06-24T13:57:43;100611.47;;;33.59;53.05
23223;BME280;11780;13.904;100.620;2023-06-24T14:00:13;100615.50;;;33.61;53.46
23223;BME280;11780;13.904;100.620;2023-06-24T14:02:44;100618.75;;;33.63;53.55
23223;BME280;11780;13.904;100.620;2023-06-24T14:05:14;100623.38;;;33.59;53.76
23223;BME280;11780;13.904;100.620;2023-06-24T14:07:45;100629.38;;;33.61;53.98
23223;BME280;11780;13.904;100.620;2023-06-24T14:10:15;100634.94;;;33.61;53.79
23223;BME280;11780;13.904;100.620;2023-06-24T14:12:46;100638.97;;;33.64;53.51
23223;BME280;11780;13.904;100.620;2023-06-24T14:15:16;100649.72;;;33.65;53.69
23223;BME280;11780;13.904;100.620;2023-06-24T14:17:46;100660.13;;;33.68;53.77
23223;BME280;11780;13.904;100.620;2023-06-24T14:20:17;100656.44;;;33.64;53.53
23223;BME280;11780;13.904;100.620;2023-06-24T14:22:47;100672.84;;;33.69;53.51
23223;BME280;11780;13.904;100.620;2023-06-24T14:25:18;100670.41;;;33.68;53.75
23223;BME280;11780;13.904;100.620;2023-06-24T14:27:48;100678.84;;;33.71;53.72
23223;BME280;11780;13.904;100.620;2023-06-24T14:30:18;100689.03;;;33.67;54.11
23223;BME280;11780;13.904;100.620;2023-06-24T14:32:49;100687.06;;;33.68;54.56
23223;BME280;11780;13.904;100.620;2023-06-24T14:35:19;100694.91;;;33.66;54.51
23223;BME280;11780;13.904;100.620;2023-06-24T14:37:50;100699.44;;;33.70;54.31
23223;BME280;11780;13.904;100.620;2023-06-24T14:40:21;100707.50;;;33.63;54.48
23223;BME280;11780;13.904;100.620;2023-06-24T14:42:52;100711.22;;;33.67;54.17
23223;BME280;11780;13.904;100.620;2023-06-24T14:45:22;100718.50;;;33.72;54.17
23223;BME280;11780;13.904;100.620;2023-06-24T15:25:25;100763.19;;;33.03;54.41
23223;BME280;11780;13.904;100.620;2023-06-24T15:27:58;100764.59;;;33.09;54.12
23223;BME280;11780;13.904;100.620;2023-06-24T15:30:28;100764.84;;;33.17;54.15
23223;BME280;11780;13.904;100.620;2023-06-24T15:32:59;100749.97;;;33.21;54.04
23223;BME280;11780;13.904;100.620;2023-06-24T15:35:29;100740.44;;;33.31;53.83
23223;BME280;11780;13.904;100.620;2023-06-24T15:38:02;100746.44;;;33.33;53.71
23223;BME280;11780;13.904;100.620;2023-06-24T15:40:32;100749.50;;;33.40;53.42
23223;BME280;11780;13.904;100.620;2023-06-24T15:43:03;100742.59;;;33.47;53.31
23223;BME280;11780;13.904;100.620;2023-06-24T15:45:34;100755.56;;;33.55;52.89
23223;BME280;11780;13.904;100.620;2023-06-24T15:48:04;100758.00;;;33.57;52.95
23223;BME280;11780;13.904;100.620;2023-06-24T15:50:35;100752.56;;;33.60;52.76
23223;BME280;11780;13.904;100.620;2023-06-24T15:53:05;100759.41;;;33.63;52.67
23223;BME280;11780;13.904;100.620;2023-06-24T15:55:35;100756.28;;;33.64;51.85
23223;BME280;11780;13.904;100.620;2023-06-24T15:58:06;100759.53;;;33.66;52.25
23223;BME280;11780;13.904;100.620;2023-06-24T16:00:36;100756.75;;;33.66;52.58
23223;BME280;11780;13.904;100.620;2023-06-24T16:03:06;100765.53;;;33.68;52.18
23223;BME280;11780;13.904;100.620;2023-06-24T16:05:37;100757.22;;;33.68;52.06
23223;BME280;11780;13.904;100.620;2023-06-24T16:08:07;100754.91;;;33.70;51.91
23223;BME280;11780;13.904;100.620;2023-06-24T16:10:38;100752.16;;;33.70;52.03
23223;BME280;11780;13.904;100.620;2023-06-24T16:13:10;100769.69;;;33.75;52.06
23223;BME280;11780;13.904;100.620;2023-06-24T16:15:42;100762.53;;;33.74;51.45
23223;BME280;11780;13.904;100.620;2023-06-24T16:18:13;100764.03;;;33.71;50.82
23223;BME280;11780;13.904;100.620;2023-06-24T16:20:43;100770.06;;;33.73;51.57
23223;BME280;11780;13.904;100.620;2023-06-24T16:23:14;100768.44;;;33.72;52.05
23223;BME280;11780;13.904;100.620;2023-06-24T16:25:44;100768.78;;;33.70;51.99
23223;BME280;11780;13.904;100.620;2023-06-24T16:28:15;100761.25;;;33.71;51.86
23223;BME280;11780;13.904;100.620;2023-06-24T16:30:46;100758.13;;;33.73;51.61
23223;BME280;11780;13.904;100.620;2023-06-24T16:33:17;100765.31;;;33.74;51.17
23223;BME280;11780;13.904;100.620;2023-06-24T16:35:47;100753.28;;;33.69;51.36
23223;BME280;11780;13.904;100.620;2023-06-24T16:38:18;100763.25;;;33.70;51.90
23223;BME280;11780;13.904;100.620;2023-06-24T16:40:48;100760.59;;;33.74;52.00
23223;BME280;11780;13.904;100.620;2023-06-24T16:43:18;100750.06;;;33.67;51.78
23223;BME280;11780;13.904;100.620;2023-06-24T16:45:49;100754.56;;;33.72;51.88
23223;BME280;11780;13.904;100.620;2023-06-24T16:48:20;100752.16;;;33.70;51.61